Portada
METAR-TAF:

METAR-TAF

Aeroports :

Chah Bahar, Iran

latitud: 25-25N, longitud: 060-45E, altitud: 6 m

Observació

L'informe es va fer fa 21 minuts, a les 09:00 UTC
Vent 10 kt del Est/Sud-Est
Temperatura 25°C
Humitat 57%
Pressió 1019 hPa
Visibilitat 10 km o més
Escasses núvols a una alçada de 3500 ft, Cumulonimbus.
Núvols disperses a una alçada de 4000 ft
Cel ennuvolat a una alçada de 10000 ft

METAR: OIZC 220900Z 11010KT 9999 FEW035CB SCT040 BKN100 25/16 Q1019 A3010

Hora: 12:51 (09:21 UTC)


TAF: manca

Observacions i pronòstics meteorològics de més de 4000 aeroports (METAR i TAF).

Les estacions disponibles són els punts grocs i vermells al mapa.

Posi el ratolí al punt desitjat per veure el nom de l'estació.

Feu clic per veure les observacions i els pronòstics meteorològics.

Per canviar el mapa: feu clic els botons verds amb una creu de color negre per apropar; al botó verd amb un guió per allunyar la imatge; o en les fletxes verdes per a mapes adjacents.


METAR-TAF: